sensor_id;sensor_type;location;lat;lon;timestamp;pressure;altitude;pressure_sealevel;temperature
70123;BMP280;57489;37.404;24.920;2022-10-16T00:04:23;100255.28;;;23.53
70123;BMP280;57489;37.404;24.920;2022-10-16T00:09:24;100254.41;;;23.49
70123;BMP280;57489;37.404;24.920;2022-10-16T00:14:24;100249.06;;;23.49
70123;BMP280;57489;37.404;24.920;2022-10-16T00:19:25;100240.16;;;23.45
70123;BMP280;57489;37.404;24.920;2022-10-16T00:24:25;100248.19;;;23.45
70123;BMP280;57489;37.404;24.920;2022-10-16T00:29:26;100255.81;;;23.43
70123;BMP280;57489;37.404;24.920;2022-10-16T00:34:26;100248.09;;;23.41
70123;BMP280;57489;37.404;24.920;2022-10-16T00:39:26;100243.09;;;23.39
70123;BMP280;57489;37.404;24.920;2022-10-16T00:44:46;100241.22;;;23.40
70123;BMP280;57489;37.404;24.920;2022-10-16T00:49:50;100252.56;;;23.37
70123;BMP280;57489;37.404;24.920;2022-10-16T00:54:52;100237.28;;;23.37
70123;BMP280;57489;37.404;24.920;2022-10-16T00:59:53;100254.84;;;23.35
70123;BMP280;57489;37.404;24.920;2022-10-16T01:04:54;100261.66;;;23.32
70123;BMP280;57489;37.404;24.920;2022-10-16T01:10:17;100255.50;;;23.32
70123;BMP280;57489;37.404;24.920;2022-10-16T01:30:59;100266.44;;;23.27
70123;BMP280;57489;37.404;24.920;2022-10-16T01:36:08;100270.59;;;23.24
70123;BMP280;57489;37.404;24.920;2022-10-16T01:41:19;100272.81;;;23.22
70123;BMP280;57489;37.404;24.920;2022-10-16T01:46:22;100286.66;;;23.24
70123;BMP280;57489;37.404;24.920;2022-10-16T01:51:23;100303.41;;;23.21
70123;BMP280;57489;37.404;24.920;2022-10-16T01:56:25;100301.84;;;23.20
70123;BMP280;57489;37.404;24.920;2022-10-16T02:01:29;100309.44;;;23.18
70123;BMP280;57489;37.404;24.920;2022-10-16T02:06:31;100327.03;;;23.19
70123;BMP280;57489;37.404;24.920;2022-10-16T02:11:32;100329.28;;;23.17
70123;BMP280;57489;37.404;24.920;2022-10-16T02:16:38;100331.97;;;23.17
70123;BMP280;57489;37.404;24.920;2022-10-16T02:22:00;100341.56;;;23.18
70123;BMP280;57489;37.404;24.920;2022-10-16T02:27:10;100339.22;;;23.17
70123;BMP280;57489;37.404;24.920;2022-10-16T02:32:12;100334.56;;;23.13
70123;BMP280;57489;37.404;24.920;2022-10-16T02:37:14;100357.97;;;23.17
70123;BMP280;57489;37.404;24.920;2022-10-16T02:42:18;100365.22;;;23.16
70123;BMP280;57489;37.404;24.920;2022-10-16T02:47:18;100360.19;;;23.14
70123;BMP280;57489;37.404;24.920;2022-10-16T02:52:19;100359.88;;;23.16
70123;BMP280;57489;37.404;24.920;2022-10-16T02:57:19;100367.13;;;23.16
70123;BMP280;57489;37.404;24.920;2022-10-16T03:02:20;100384.28;;;23.14
70123;BMP280;57489;37.404;24.920;2022-10-16T03:07:21;100375.03;;;23.12
70123;BMP280;57489;37.404;24.920;2022-10-16T03:12:21;100388.75;;;23.10
70123;BMP280;57489;37.404;24.920;2022-10-16T03:17:22;100383.84;;;23.12
70123;BMP280;57489;37.404;24.920;2022-10-16T03:22:23;100393.34;;;23.10
70123;BMP280;57489;37.404;24.920;2022-10-16T03:27:23;100387.97;;;23.10
70123;BMP280;57489;37.404;24.920;2022-10-16T03:32:24;100389.09;;;23.09
70123;BMP280;57489;37.404;24.920;2022-10-16T03:37:24;100380.28;;;23.08
70123;BMP280;57489;37.404;24.920;2022-10-16T03:42:25;100383.97;;;23.16
70123;BMP280;57489;37.404;24.920;2022-10-16T03:47:25;100383.50;;;23.14
70123;BMP280;57489;37.404;24.920;2022-10-16T03:52:26;100409.41;;;23.10
70123;BMP280;57489;37.404;24.920;2022-10-16T03:57:26;100396.34;;;23.08
70123;BMP280;57489;37.404;24.920;2022-10-16T04:02:27;100404.03;;;23.10
70123;BMP280;57489;37.404;24.920;2022-10-16T04:07:27;100397.56;;;23.11
70123;BMP280;57489;37.404;24.920;2022-10-16T04:12:28;100395.56;;;23.08
70123;BMP280;57489;37.404;24.920;2022-10-16T04:17:28;100389.31;;;23.04
70123;BMP280;57489;37.404;24.920;2022-10-16T04:22:28;100398.91;;;23.05
70123;BMP280;57489;37.404;24.920;2022-10-16T04:27:29;100397.81;;;23.06
70123;BMP280;57489;37.404;24.920;2022-10-16T04:32:29;100412.28;;;23.05
70123;BMP280;57489;37.404;24.920;2022-10-16T04:37:30;100421.91;;;23.06
70123;BMP280;57489;37.404;24.920;2022-10-16T04:42:30;100424.13;;;23.04
70123;BMP280;57489;37.404;24.920;2022-10-16T04:47:31;100409.94;;;23.03
70123;BMP280;57489;37.404;24.920;2022-10-16T04:52:32;100403.69;;;22.99
70123;BMP280;57489;37.404;24.920;2022-10-16T04:57:32;100417.16;;;23.03
70123;BMP280;57489;37.404;24.920;2022-10-16T05:02:32;100423.69;;;23.02
70123;BMP280;57489;37.404;24.920;2022-10-16T05:07:33;100432.81;;;23.01
70123;BMP280;57489;37.404;24.920;2022-10-16T05:12:33;100437.06;;;23.02
70123;BMP280;57489;37.404;24.920;2022-10-16T05:17:34;100443.94;;;23.03
70123;BMP280;57489;37.404;24.920;2022-10-16T05:22:34;100451.97;;;23.03
70123;BMP280;57489;37.404;24.920;2022-10-16T05:27:35;100458.22;;;23.07
70123;BMP280;57489;37.404;24.920;2022-10-16T05:32:35;100452.88;;;23.07
70123;BMP280;57489;37.404;24.920;2022-10-16T05:37:36;100477.44;;;23.09
70123;BMP280;57489;37.404;24.920;2022-10-16T05:42:36;100470.53;;;23.08
70123;BMP280;57489;37.404;24.920;2022-10-16T05:47:37;100477.44;;;23.09
70123;BMP280;57489;37.404;24.920;2022-10-16T05:52:37;100478.13;;;23.06
70123;BMP280;57489;37.404;24.920;2022-10-16T05:57:38;100477.44;;;23.09
70123;BMP280;57489;37.404;24.920;2022-10-16T06:02:38;100497.28;;;23.08
70123;BMP280;57489;37.404;24.920;2022-10-16T06:07:39;100492.59;;;23.05
70123;BMP280;57489;37.404;24.920;2022-10-16T06:12:39;100488.81;;;23.06
70123;BMP280;57489;37.404;24.920;2022-10-16T06:17:40;100500.41;;;23.10
70123;BMP280;57489;37.404;24.920;2022-10-16T06:22:40;100506.19;;;23.12
70123;BMP280;57489;37.404;24.920;2022-10-16T06:27:41;100507.78;;;23.25
70123;BMP280;57489;37.404;24.920;2022-10-16T06:32:41;100534.34;;;23.30
70123;BMP280;57489;37.404;24.920;2022-10-16T06:37:41;100530.06;;;23.29
70123;BMP280;57489;37.404;24.920;2022-10-16T06:42:42;100543.16;;;23.31
70123;BMP280;57489;37.404;24.920;2022-10-16T06:47:42;100543.25;;;23.34
70123;BMP280;57489;37.404;24.920;2022-10-16T06:52:43;100557.75;;;23.33
70123;BMP280;57489;37.404;24.920;2022-10-16T06:57:43;100557.31;;;23.31
70123;BMP280;57489;37.404;24.920;2022-10-16T07:02:44;100559.31;;;23.34
70123;BMP280;57489;37.404;24.920;2022-10-16T07:07:44;100555.66;;;23.39
70123;BMP280;57489;37.404;24.920;2022-10-16T07:12:45;100563.44;;;23.56
70123;BMP280;57489;37.404;24.920;2022-10-16T07:17:45;100558.47;;;23.55
70123;BMP280;57489;37.404;24.920;2022-10-16T07:22:46;100558.44;;;23.79
70123;BMP280;57489;37.404;24.920;2022-10-16T07:27:46;100569.47;;;23.90
70123;BMP280;57489;37.404;24.920;2022-10-16T07:32:47;100582.06;;;24.02
70123;BMP280;57489;37.404;24.920;2022-10-16T07:37:47;100594.78;;;24.17
70123;BMP280;57489;37.404;24.920;2022-10-16T07:42:48;100584.25;;;24.24
70123;BMP280;57489;37.404;24.920;2022-10-16T07:47:48;100588.97;;;24.27
70123;BMP280;57489;37.404;24.920;2022-10-16T07:52:48;100583.69;;;24.31
70123;BMP280;57489;37.404;24.920;2022-10-16T07:57:49;100604.31;;;24.42
70123;BMP280;57489;37.404;24.920;2022-10-16T08:02:49;100592.66;;;24.50
70123;BMP280;57489;37.404;24.920;2022-10-16T08:07:50;100593.53;;;24.55
70123;BMP280;57489;37.404;24.920;2022-10-16T08:12:51;100584.00;;;24.57
70123;BMP280;57489;37.404;24.920;2022-10-16T08:17:59;100570.72;;;24.61
70123;BMP280;57489;37.404;24.920;2022-10-16T08:23:00;100597.53;;;24.61
70123;BMP280;57489;37.404;24.920;2022-10-16T08:28:03;100610.53;;;24.59
70123;BMP280;57489;37.404;24.920;2022-10-16T08:33:04;100609.66;;;24.55
70123;BMP280;57489;37.404;24.920;2022-10-16T08:38:06;100624.84;;;24.50
70123;BMP280;57489;37.404;24.920;2022-10-16T08:43:14;100623.50;;;24.57
70123;BMP280;57489;37.404;24.920;2022-10-16T08:48:20;100625.81;;;24.58
70123;BMP280;57489;37.404;24.920;2022-10-16T08:53:28;100617.69;;;24.55
70123;BMP280;57489;37.404;24.920;2022-10-16T08:58:30;100641.84;;;24.55
70123;BMP280;57489;37.404;24.920;2022-10-16T09:13:47;100662.13;;;24.68
70123;BMP280;57489;37.404;24.920;2022-10-16T09:24:17;100671.13;;;24.60
70123;BMP280;57489;37.404;24.920;2022-10-16T09:29:20;100669.25;;;24.48
70123;BMP280;57489;37.404;24.920;2022-10-16T09:34:35;100673.84;;;24.47
70123;BMP280;57489;37.404;24.920;2022-10-16T09:39:51;100664.47;;;24.41
70123;BMP280;57489;37.404;24.920;2022-10-16T09:44:52;100653.75;;;24.41
70123;BMP280;57489;37.404;24.920;2022-10-16T09:49:57;100664.31;;;24.50
70123;BMP280;57489;37.404;24.920;2022-10-16T09:55:00;100653.56;;;24.62
70123;BMP280;57489;37.404;24.920;2022-10-16T10:00:08;100655.44;;;24.74
70123;BMP280;57489;37.404;24.920;2022-10-16T10:05:24;100647.81;;;24.76
70123;BMP280;57489;37.404;24.920;2022-10-16T10:10:30;100650.72;;;24.71
70123;BMP280;57489;37.404;24.920;2022-10-16T10:15:34;100645.38;;;24.71
70123;BMP280;57489;37.404;24.920;2022-10-16T10:20:36;100654.44;;;24.66
70123;BMP280;57489;37.404;24.920;2022-10-16T10:36:25;100639.34;;;24.90
70123;BMP280;57489;37.404;24.920;2022-10-16T11:08:59;100652.75;;;24.74
70123;BMP280;57489;37.404;24.920;2022-10-16T11:14:19;100659.72;;;24.63
70123;BMP280;57489;37.404;24.920;2022-10-16T11:19:34;100655.03;;;24.60
70123;BMP280;57489;37.404;24.920;2022-10-16T11:25:13;100677.16;;;24.57
70123;BMP280;57489;37.404;24.920;2022-10-16T11:30:27;100682.22;;;24.46
70123;BMP280;57489;37.404;24.920;2022-10-16T11:35:44;100678.31;;;24.43
70123;BMP280;57489;37.404;24.920;2022-10-16T11:40:47;100668.25;;;24.40
70123;BMP280;57489;37.404;24.920;2022-10-16T11:45:53;100675.09;;;24.38
70123;BMP280;57489;37.404;24.920;2022-10-16T11:51:05;100674.53;;;24.32
70123;BMP280;57489;37.404;24.920;2022-10-16T11:56:08;100657.22;;;24.30
70123;BMP280;57489;37.404;24.920;2022-10-16T12:01:32;100670.31;;;24.31
70123;BMP280;57489;37.404;24.920;2022-10-16T12:11:38;100660.19;;;24.52
70123;BMP280;57489;37.404;24.920;2022-10-16T12:16:51;100656.38;;;24.54
70123;BMP280;57489;37.404;24.920;2022-10-16T12:21:55;100665.56;;;24.52
70123;BMP280;57489;37.404;24.920;2022-10-16T12:26:56;100655.94;;;24.51
70123;BMP280;57489;37.404;24.920;2022-10-16T12:31:57;100644.53;;;24.55
70123;BMP280;57489;37.404;24.920;2022-10-16T12:42:32;100653.47;;;24.59
70123;BMP280;57489;37.404;24.920;2022-10-16T13:08:35;100679.69;;;24.65
70123;BMP280;57489;37.404;24.920;2022-10-16T13:14:00;100669.56;;;24.59
70123;BMP280;57489;37.404;24.920;2022-10-16T13:19:28;100668.88;;;24.62
70123;BMP280;57489;37.404;24.920;2022-10-16T13:25:31;100680.31;;;24.59
70123;BMP280;57489;37.404;24.920;2022-10-16T13:30:29;100691.72;;;24.56
70123;BMP280;57489;37.404;24.920;2022-10-16T13:35:32;100686.13;;;24.48
70123;BMP280;57489;37.404;24.920;2022-10-16T13:40:33;100701.44;;;24.48
70123;BMP280;57489;37.404;24.920;2022-10-16T13:45:33;100695.22;;;24.44
70123;BMP280;57489;37.404;24.920;2022-10-16T13:50:34;100681.44;;;24.45
70123;BMP280;57489;37.404;24.920;2022-10-16T13:55:34;100689.03;;;24.43
70123;BMP280;57489;37.404;24.920;2022-10-16T14:00:35;100685.06;;;24.37
70123;BMP280;57489;37.404;24.920;2022-10-16T14:05:35;100691.19;;;24.38
70123;BMP280;57489;37.404;24.920;2022-10-16T14:10:36;100684.06;;;24.30
70123;BMP280;57489;37.404;24.920;2022-10-16T14:15:36;100680.56;;;24.29
70123;BMP280;57489;37.404;24.920;2022-10-16T14:20:37;100687.06;;;24.28
70123;BMP280;57489;37.404;24.920;2022-10-16T14:25:38;100680.81;;;24.24
70123;BMP280;57489;37.404;24.920;2022-10-16T14:30:52;100695.00;;;24.24
70123;BMP280;57489;37.404;24.920;2022-10-16T14:36:03;100695.09;;;24.40
70123;BMP280;57489;37.404;24.920;2022-10-16T14:41:04;100706.94;;;24.51
70123;BMP280;57489;37.404;24.920;2022-10-16T14:46:13;100675.72;;;24.59
70123;BMP280;57489;37.404;24.920;2022-10-16T14:51:14;100709.13;;;24.62
70123;BMP280;57489;37.404;24.920;2022-10-16T14:56:23;100695.56;;;24.83
70123;BMP280;57489;37.404;24.920;2022-10-16T15:01:24;100690.25;;;24.86
70123;BMP280;57489;37.404;24.920;2022-10-16T15:06:25;100712.00;;;24.81
70123;BMP280;57489;37.404;24.920;2022-10-16T15:11:25;100713.22;;;24.84
70123;BMP280;57489;37.404;24.920;2022-10-16T15:16:26;100705.84;;;24.81
70123;BMP280;57489;37.404;24.920;2022-10-16T15:21:31;100718.75;;;24.63
70123;BMP280;57489;37.404;24.920;2022-10-16T15:26:32;100733.28;;;24.62
70123;BMP280;57489;37.404;24.920;2022-10-16T15:31:32;100738.13;;;24.56
70123;BMP280;57489;37.404;24.920;2022-10-16T15:36:35;100747.72;;;24.57
70123;BMP280;57489;37.404;24.920;2022-10-16T15:41:36;100733.81;;;24.79
70123;BMP280;57489;37.404;24.920;2022-10-16T15:46:36;100750.22;;;24.90
70123;BMP280;57489;37.404;24.920;2022-10-16T15:51:41;100746.41;;;24.91
70123;BMP280;57489;37.404;24.920;2022-10-16T15:56:42;100750.22;;;24.90
70123;BMP280;57489;37.404;24.920;2022-10-16T16:01:42;100743.88;;;24.83
70123;BMP280;57489;37.404;24.920;2022-10-16T16:06:43;100753.94;;;24.86
70123;BMP280;57489;37.404;24.920;2022-10-16T16:11:43;100760.34;;;24.81
70123;BMP280;57489;37.404;24.920;2022-10-16T16:16:44;100765.53;;;24.90
70123;BMP280;57489;37.404;24.920;2022-10-16T16:21:44;100777.09;;;24.78
70123;BMP280;57489;37.404;24.920;2022-10-16T16:26:45;100783.53;;;24.89
70123;BMP280;57489;37.404;24.920;2022-10-16T16:31:45;100782.34;;;24.87
70123;BMP280;57489;37.404;24.920;2022-10-16T16:36:45;100800.13;;;24.91
70123;BMP280;57489;37.404;24.920;2022-10-16T16:41:46;100808.41;;;24.86
70123;BMP280;57489;37.404;24.920;2022-10-16T16:46:46;100811.72;;;24.95
70123;BMP280;57489;37.404;24.920;2022-10-16T16:51:47;100820.03;;;24.90
70123;BMP280;57489;37.404;24.920;2022-10-16T16:56:47;100839.50;;;24.87
70123;BMP280;57489;37.404;24.920;2022-10-16T17:01:49;100836.16;;;24.90
70123;BMP280;57489;37.404;24.920;2022-10-16T17:06:49;100840.84;;;24.93
70123;BMP280;57489;37.404;24.920;2022-10-16T17:11:49;100836.59;;;24.80
70123;BMP280;57489;37.404;24.920;2022-10-16T17:16:51;100837.97;;;24.74
70123;BMP280;57489;37.404;24.920;2022-10-16T17:21:52;100826.31;;;24.70
70123;BMP280;57489;37.404;24.920;2022-10-16T17:26:53;100816.16;;;24.88
70123;BMP280;57489;37.404;24.920;2022-10-16T17:31:55;100810.88;;;24.91
70123;BMP280;57489;37.404;24.920;2022-10-16T17:36:55;100815.88;;;24.93
70123;BMP280;57489;37.404;24.920;2022-10-16T17:41:56;100811.44;;;24.85
70123;BMP280;57489;37.404;24.920;2022-10-16T17:46:56;100813.28;;;24.96
70123;BMP280;57489;37.404;24.920;2022-10-16T17:51:57;100829.19;;;25.01
70123;BMP280;57489;37.404;24.920;2022-10-16T17:56:57;100840.94;;;24.97
70123;BMP280;57489;37.404;24.920;2022-10-16T18:01:58;100839.94;;;24.89
70123;BMP280;57489;37.404;24.920;2022-10-16T18:06:58;100843.09;;;24.79
70123;BMP280;57489;37.404;24.920;2022-10-16T18:11:59;100845.13;;;24.70
70123;BMP280;57489;37.404;24.920;2022-10-16T18:16:59;100876.22;;;24.71
70123;BMP280;57489;37.404;24.920;2022-10-16T18:22:00;100886.03;;;24.55
70123;BMP280;57489;37.404;24.920;2022-10-16T18:27:00;100902.81;;;24.64
70123;BMP280;57489;37.404;24.920;2022-10-16T18:32:01;100902.63;;;24.69
70123;BMP280;57489;37.404;24.920;2022-10-16T18:37:02;100933.25;;;24.80
70123;BMP280;57489;37.404;24.920;2022-10-16T18:42:02;100951.59;;;24.78
70123;BMP280;57489;37.404;24.920;2022-10-16T18:47:03;100964.59;;;24.76
70123;BMP280;57489;37.404;24.920;2022-10-16T18:52:04;100976.44;;;24.87
70123;BMP280;57489;37.404;24.920;2022-10-16T18:57:04;100973.50;;;24.68
70123;BMP280;57489;37.404;24.920;2022-10-16T19:02:05;100977.97;;;24.64
70123;BMP280;57489;37.404;24.920;2022-10-16T19:07:06;100980.22;;;24.62
70123;BMP280;57489;37.404;24.920;2022-10-16T19:12:07;100981.13;;;24.66
70123;BMP280;57489;37.404;24.920;2022-10-16T19:17:07;100972.59;;;24.64
70123;BMP280;57489;37.404;24.920;2022-10-16T19:22:08;100971.03;;;24.63
70123;BMP280;57489;37.404;24.920;2022-10-16T19:27:08;100971.72;;;24.60
70123;BMP280;57489;37.404;24.920;2022-10-16T19:32:09;100966.13;;;24.65
70123;BMP280;57489;37.404;24.920;2022-10-16T19:37:09;100969.47;;;24.62
70123;BMP280;57489;37.404;24.920;2022-10-16T19:42:10;100965.44;;;24.56
70123;BMP280;57489;37.404;24.920;2022-10-16T19:47:10;100954.59;;;24.52
70123;BMP280;57489;37.404;24.920;2022-10-16T19:52:11;100954.25;;;24.54
70123;BMP280;57489;37.404;24.920;2022-10-16T19:57:11;100962.97;;;24.50
70123;BMP280;57489;37.404;24.920;2022-10-16T20:02:12;100966.13;;;24.52
70123;BMP280;57489;37.404;24.920;2022-10-16T20:07:12;100990.59;;;24.51
70123;BMP280;57489;37.404;24.920;2022-10-16T20:12:13;100986.66;;;24.48
70123;BMP280;57489;37.404;24.920;2022-10-16T20:17:13;100984.06;;;24.40
70123;BMP280;57489;37.404;24.920;2022-10-16T20:22:14;100997.19;;;24.41
70123;BMP280;57489;37.404;24.920;2022-10-16T20:27:14;101012.47;;;24.41
70123;BMP280;57489;37.404;24.920;2022-10-16T20:32:15;101007.00;;;24.37
70123;BMP280;57489;37.404;24.920;2022-10-16T20:37:16;100996.38;;;24.41
70123;BMP280;57489;37.404;24.920;2022-10-16T20:42:16;101011.69;;;24.40
70123;BMP280;57489;37.404;24.920;2022-10-16T20:47:16;101001.09;;;24.44
70123;BMP280;57489;37.404;24.920;2022-10-16T20:52:17;100992.22;;;24.43
70123;BMP280;57489;37.404;24.920;2022-10-16T20:57:17;100994.03;;;24.39
70123;BMP280;57489;37.404;24.920;2022-10-16T21:02:18;101006.31;;;24.40
70123;BMP280;57489;37.404;24.920;2022-10-16T21:07:18;101011.69;;;24.40
70123;BMP280;57489;37.404;24.920;2022-10-16T21:12:19;101009.69;;;24.37
70123;BMP280;57489;37.404;24.920;2022-10-16T21:17:19;100996.25;;;24.37
70123;BMP280;57489;37.404;24.920;2022-10-16T21:22:20;101009.00;;;24.40
70123;BMP280;57489;37.404;24.920;2022-10-16T21:27:20;101018.56;;;24.29
70123;BMP280;57489;37.404;24.920;2022-10-16T21:32:21;101010.75;;;24.36
70123;BMP280;57489;37.404;24.920;2022-10-16T21:37:21;101025.09;;;24.40
70123;BMP280;57489;37.404;24.920;2022-10-16T21:42:22;101023.19;;;24.41
70123;BMP280;57489;37.404;24.920;2022-10-16T21:47:22;101025.69;;;24.46
70123;BMP280;57489;37.404;24.920;2022-10-16T21:52:23;101017.19;;;24.44
70123;BMP280;57489;37.404;24.920;2022-10-16T21:57:23;101013.69;;;24.43
70123;BMP280;57489;37.404;24.920;2022-10-16T22:02:24;101018.22;;;24.51
70123;BMP280;57489;37.404;24.920;2022-10-16T22:07:24;101025.97;;;24.32
70123;BMP280;57489;37.404;24.920;2022-10-16T22:12:25;101031.50;;;24.15
70123;BMP280;57489;37.404;24.920;2022-10-16T22:17:25;101034.13;;;24.03
70123;BMP280;57489;37.404;24.920;2022-10-16T22:22:26;101034.28;;;23.98
70123;BMP280;57489;37.404;24.920;2022-10-16T22:27:27;101039.56;;;23.85
70123;BMP280;57489;37.404;24.920;2022-10-16T22:32:28;101023.88;;;23.75
70123;BMP280;57489;37.404;24.920;2022-10-16T22:37:29;101029.91;;;23.72
70123;BMP280;57489;37.404;24.920;2022-10-16T22:42:29;101035.78;;;23.65
70123;BMP280;57489;37.404;24.920;2022-10-16T22:47:30;101032.50;;;23.60
70123;BMP280;57489;37.404;24.920;2022-10-16T22:52:31;101013.59;;;23.56
70123;BMP280;57489;37.404;24.920;2022-10-16T22:57:31;100998.50;;;23.52
70123;BMP280;57489;37.404;24.920;2022-10-16T23:02:32;100981.81;;;23.46
70123;BMP280;57489;37.404;24.920;2022-10-16T23:07:33;100985.44;;;23.41
70123;BMP280;57489;37.404;24.920;2022-10-16T23:12:35;100978.09;;;23.38
70123;BMP280;57489;37.404;24.920;2022-10-16T23:17:35;100985.03;;;23.39
70123;BMP280;57489;37.404;24.920;2022-10-16T23:22:36;100991.34;;;23.35
70123;BMP280;57489;37.404;24.920;2022-10-16T23:27:36;100993.88;;;23.31
70123;BMP280;57489;37.404;24.920;2022-10-16T23:32:37;101004.09;;;23.29
70123;BMP280;57489;37.404;24.920;2022-10-16T23:37:37;101009.03;;;23.27
70123;BMP280;57489;37.404;24.920;2022-10-16T23:42:38;101002.09;;;23.26
70123;BMP280;57489;37.404;24.920;2022-10-16T23:47:38;101004.31;;;23.24
70123;BMP280;57489;37.404;24.920;2022-10-16T23:52:38;101001.16;;;23.22
70123;BMP280;57489;37.404;24.920;2022-10-16T23:57:39;101006.06;;;23.20
